createdAt,value
2023-04-27T00:04:55.502Z,20.77
2023-04-27T00:09:54.423Z,20.82
2023-04-27T00:14:53.775Z,21.06
2023-04-27T00:19:52.845Z,20.94
2023-04-27T00:24:52.114Z,20.80
2023-04-27T00:29:52.371Z,20.72
2023-04-27T00:34:50.635Z,20.69
2023-04-27T00:39:51.919Z,20.38
2023-04-27T00:44:49.182Z,20.26
2023-04-27T00:49:49.464Z,20.17
2023-04-27T00:54:49.742Z,20.13
2023-04-27T00:59:47.030Z,19.99
2023-04-27T01:04:46.308Z,19.78
2023-04-27T01:09:46.602Z,19.77
2023-04-27T01:14:45.864Z,19.69
2023-04-27T01:19:44.132Z,19.54
2023-04-27T01:24:44.413Z,19.59
2023-04-27T01:29:42.678Z,19.43
2023-04-27T01:34:42.935Z,19.43
2023-04-27T01:39:41.266Z,19.41
2023-04-27T01:44:40.543Z,19.37
2023-04-27T01:49:40.810Z,19.29
2023-04-27T01:54:40.092Z,19.08
2023-04-27T01:59:38.350Z,19.02
2023-04-27T02:04:37.722Z,19.26
2023-04-27T02:09:36.817Z,19.51
2023-04-27T02:14:37.105Z,19.69
2023-04-27T02:19:36.340Z,19.91
2023-04-27T02:24:34.578Z,19.94
2023-04-27T02:29:33.824Z,19.81
2023-04-27T02:34:33.114Z,19.91
2023-04-27T02:39:34.384Z,19.81
2023-04-27T02:44:32.633Z,19.66
2023-04-27T02:49:31.927Z,19.51
2023-04-27T02:54:30.222Z,19.59
2023-04-27T02:59:29.522Z,19.46
2023-04-27T03:04:29.019Z,19.33
2023-04-27T03:09:29.120Z,19.22
2023-04-27T03:14:27.392Z,19.18
2023-04-27T03:19:26.649Z,19.25
2023-04-27T03:24:26.970Z,19.25
2023-04-27T03:29:26.237Z,19.11
2023-04-27T03:34:24.490Z,18.94
2023-04-27T03:39:23.785Z,18.85
2023-04-27T03:44:23.010Z,19.37
2023-04-27T03:49:25.276Z,19.74
2023-04-27T03:54:21.541Z,20.17
2023-04-27T03:59:21.825Z,20.58
2023-04-27T04:04:20.252Z,21.17
2023-04-27T04:09:19.764Z,21.14
2023-04-27T04:14:18.629Z,21.40
2023-04-27T04:24:17.115Z,21.16
2023-04-27T04:29:18.402Z,21.13
2023-04-27T04:34:15.627Z,21.12
2023-04-27T04:39:14.094Z,21.01
2023-04-27T04:44:14.062Z,20.91
2023-04-27T04:49:13.524Z,20.89
2023-04-27T04:54:12.531Z,20.85
2023-04-27T04:59:11.990Z,20.66
2023-04-27T05:04:12.231Z,20.28
2023-04-27T05:09:10.175Z,20.20
2023-04-27T05:14:10.458Z,20.13
2023-04-27T05:19:09.717Z,19.95
2023-04-27T05:24:08.020Z,19.80
2023-04-27T05:29:07.298Z,19.83
2023-04-27T05:34:06.568Z,20.03
2023-04-27T05:39:05.873Z,20.01
2023-04-27T05:44:06.163Z,20.39
2023-04-27T05:49:05.443Z,20.59
2023-04-27T05:54:03.757Z,20.88
2023-04-27T05:59:03.068Z,21.09
2023-04-27T06:04:04.538Z,21.13
2023-04-27T06:09:02.510Z,21.22
2023-04-27T06:14:01.781Z,21.31
2023-04-27T06:19:00.042Z,21.27
2023-04-27T06:24:00.318Z,21.28
2023-04-27T06:29:00.583Z,21.19
2023-04-27T06:33:59.829Z,21.14
2023-04-27T06:38:57.084Z,21.09
2023-04-27T06:43:58.445Z,21.06
2023-04-27T06:48:55.594Z,21.06
2023-04-27T06:53:55.854Z,20.89
2023-04-27T06:58:54.160Z,20.80
2023-04-27T07:03:53.543Z,20.69
2023-04-27T07:08:52.720Z,20.66
2023-04-27T07:13:52.958Z,20.52
2023-04-27T07:18:52.173Z,20.41
2023-04-27T07:23:51.700Z,19.66
2023-04-27T07:28:50.711Z,20.11
2023-04-27T07:33:49.060Z,20.50
2023-04-27T07:38:50.317Z,20.67
2023-04-27T07:43:47.598Z,20.89
2023-04-27T07:48:46.897Z,21.34
2023-04-27T07:53:47.801Z,21.72
2023-04-27T07:58:45.363Z,21.83
2023-04-27T08:03:45.929Z,21.86
2023-04-27T08:08:43.927Z,21.79
2023-04-27T08:13:43.253Z,21.68
2023-04-27T08:18:42.516Z,21.40
2023-04-27T08:23:41.799Z,20.88
2023-04-27T08:28:41.097Z,20.94
2023-04-27T08:33:40.339Z,20.72
2023-04-27T08:38:39.616Z,20.64
2023-04-27T08:43:39.924Z,20.91
2023-04-27T08:48:38.208Z,20.94
2023-04-27T08:53:37.491Z,20.92
2023-04-27T08:58:36.808Z,20.84
2023-04-27T09:03:36.316Z,20.67
2023-04-27T09:08:35.299Z,20.54
2023-04-27T09:13:35.604Z,20.43
2023-04-27T09:18:33.855Z,20.51
2023-04-27T09:23:33.097Z,20.88
2023-04-27T09:28:32.408Z,21.06
2023-04-27T09:33:33.645Z,21.38
2023-04-27T09:38:31.894Z,21.53
2023-04-27T09:43:30.020Z,21.71
2023-04-27T09:48:29.282Z,22.03
2023-04-27T09:53:28.538Z,22.22
2023-04-27T09:58:27.861Z,22.24
2023-04-27T10:03:28.169Z,22.10
2023-04-27T10:08:26.501Z,22.09
2023-04-27T10:13:26.803Z,21.84
2023-04-27T10:18:26.129Z,21.96
2023-04-27T10:23:24.411Z,21.77
2023-04-27T10:28:23.732Z,21.79
2023-04-27T10:33:23.063Z,21.42
2023-04-27T10:38:24.384Z,21.43
2023-04-27T10:43:21.678Z,21.37
2023-04-27T10:48:20.979Z,21.14
2023-04-27T10:53:22.255Z,21.17
2023-04-27T10:58:19.540Z,21.25
2023-04-27T11:03:18.893Z,21.27
2023-04-27T11:08:19.043Z,21.32
2023-04-27T11:13:17.345Z,21.62
2023-04-27T11:18:16.613Z,21.79
2023-04-27T11:23:16.889Z,21.72
2023-04-27T11:28:15.180Z,22.02
2023-04-27T11:33:14.483Z,22.07
2023-04-27T11:38:13.788Z,22.09
2023-04-27T11:43:13.094Z,22.20
2023-04-27T11:48:12.455Z,22.21
2023-04-27T11:53:11.545Z,22.14
2023-04-27T11:58:10.811Z,22.14
2023-04-27T12:03:10.307Z,22.09
2023-04-27T12:08:09.456Z,22.03
2023-04-27T12:13:08.802Z,21.96
2023-04-27T12:18:08.104Z,21.94
2023-04-27T12:23:08.216Z,21.80
2023-04-27T12:28:07.507Z,21.69
2023-04-27T12:33:07.839Z,21.79
2023-04-27T12:38:06.125Z,21.80
2023-04-27T12:43:04.410Z,21.72
2023-04-27T12:48:04.424Z,21.74
2023-04-27T12:53:04.032Z,22.00
2023-04-27T12:58:02.366Z,22.15
2023-04-27T13:03:01.562Z,22.22
2023-04-27T13:08:01.749Z,22.20
2023-04-27T13:13:00.057Z,22.54
2023-04-27T13:18:01.286Z,22.55
2023-04-27T13:22:59.331Z,22.45
2023-04-27T13:27:57.607Z,22.42
2023-04-27T13:33:04.351Z,22.37
2023-04-27T13:37:57.043Z,22.40
2023-04-27T13:42:56.319Z,22.31
2023-04-27T13:47:54.668Z,22.28
2023-04-27T13:52:53.750Z,22.22
2023-04-27T13:57:54.047Z,22.09
2023-04-27T14:02:52.441Z,22.05
2023-04-27T14:07:52.687Z,22.05
2023-04-27T14:12:51.001Z,21.94
2023-04-27T14:17:50.305Z,21.91
2023-04-27T14:22:51.617Z,21.90
2023-04-27T14:27:50.882Z,21.96
2023-04-27T14:32:48.204Z,22.15
2023-04-27T14:37:47.487Z,22.14
2023-04-27T14:42:46.776Z,22.18
2023-04-27T14:47:47.092Z,22.18
2023-04-27T14:52:45.403Z,22.35
2023-04-27T14:57:44.485Z,22.40
2023-04-27T15:02:43.819Z,22.47
2023-04-27T15:07:44.950Z,22.43
2023-04-27T15:12:42.236Z,22.36
2023-04-27T15:17:42.566Z,22.33
2023-04-27T15:22:40.826Z,22.30
2023-04-27T15:27:40.118Z,22.25
2023-04-27T15:32:40.405Z,22.21
2023-04-27T15:37:38.590Z,22.18
2023-04-27T15:42:37.865Z,22.17
2023-04-27T15:47:37.115Z,22.14
2023-04-27T15:52:36.401Z,22.12
2023-04-27T15:57:35.672Z,22.09
2023-04-27T16:02:35.085Z,22.12
2023-04-27T16:07:35.211Z,22.10
2023-04-27T16:12:33.444Z,22.12
2023-04-27T16:17:32.717Z,22.36
2023-04-27T16:22:32.941Z,22.46
2023-04-27T16:27:31.211Z,22.52
2023-04-27T16:32:33.052Z,22.58
2023-04-27T16:37:29.671Z,22.65
2023-04-27T16:42:28.927Z,22.72
2023-04-27T16:47:30.186Z,22.79
2023-04-27T16:52:26.480Z,22.80
2023-04-27T16:57:26.746Z,22.88
2023-04-27T17:02:28.180Z,22.88
2023-04-27T17:07:26.303Z,22.86
2023-04-27T17:12:25.568Z,22.82
2023-04-27T17:17:24.871Z,22.82
2023-04-27T17:22:23.142Z,22.85
2023-04-27T17:27:22.360Z,22.86
2023-04-27T17:32:22.635Z,22.88
2023-04-27T17:37:21.863Z,22.82
2023-04-27T17:42:21.149Z,22.79
2023-04-27T17:47:19.413Z,22.65
2023-04-27T17:52:20.740Z,22.51
2023-04-27T17:57:19.967Z,22.36
2023-04-27T18:02:17.330Z,22.09
2023-04-27T18:07:16.494Z,22.05
2023-04-27T18:12:17.747Z,21.71
2023-04-27T18:17:16.457Z,21.59
2023-04-27T18:22:15.189Z,21.38
2023-04-27T18:27:13.482Z,21.19
2023-04-27T18:32:14.303Z,21.06
2023-04-27T18:37:12.353Z,21.09
2023-04-27T18:42:12.327Z,21.19
2023-04-27T18:47:11.618Z,21.61
2023-04-27T18:52:11.983Z,22.09
2023-04-27T18:57:09.087Z,22.14
2023-04-27T19:02:08.425Z,22.12
2023-04-27T19:07:06.652Z,22.64
2023-04-27T19:12:08.632Z,22.91
2023-04-27T19:17:06.681Z,23.23
2023-04-27T19:22:06.556Z,23.31
2023-04-27T19:27:04.455Z,23.38
2023-04-27T19:32:05.755Z,22.98
2023-04-27T19:37:03.015Z,22.86
2023-04-27T19:42:03.667Z,23.02
2023-04-27T19:47:01.654Z,22.88
2023-04-27T19:52:02.009Z,23.38
2023-04-27T19:57:00.956Z,25.36
2023-04-27T20:01:59.325Z,26.37
2023-04-27T20:06:58.370Z,27.17
2023-04-27T20:11:58.628Z,27.17
2023-04-27T20:16:56.967Z,26.77
2023-04-27T20:21:56.066Z,26.51
2023-04-27T20:26:55.379Z,26.84
2023-04-27T20:31:54.678Z,27.24
2023-04-27T20:36:53.935Z,27.72
2023-04-27T20:41:53.224Z,27.99
2023-04-27T20:46:52.536Z,27.94
2023-04-27T20:51:51.803Z,27.34
2023-04-27T20:56:51.117Z,27.19
2023-04-27T21:01:51.375Z,27.17
2023-04-27T21:06:51.677Z,27.54
2023-04-27T21:11:48.946Z,27.39
2023-04-27T21:16:48.258Z,27.62
2023-04-27T21:21:48.497Z,27.14
2023-04-27T21:26:46.792Z,26.48
2023-04-27T21:31:46.102Z,25.79
2023-04-27T21:36:47.402Z,26.80
2023-04-27T21:41:45.721Z,26.89
2023-04-27T21:46:45.077Z,26.95
2023-04-27T21:51:43.162Z,27.02
2023-04-27T21:56:42.546Z,26.80
2023-04-27T22:01:41.678Z,27.92
2023-04-27T22:06:40.952Z,28.71
2023-04-27T22:11:40.175Z,28.18
2023-04-27T22:16:39.545Z,27.44
2023-04-27T22:21:39.656Z,27.04
2023-04-27T22:26:37.910Z,27.17
2023-04-27T22:31:37.214Z,27.37
2023-04-27T22:36:36.532Z,26.94
2023-04-27T22:41:36.823Z,27.21
2023-04-27T22:46:35.128Z,27.28
2023-04-27T22:51:34.424Z,27.66
2023-04-27T22:56:34.721Z,27.75
2023-04-27T23:01:33.992Z,28.21
2023-04-27T23:06:33.251Z,28.49
2023-04-27T23:11:32.527Z,27.69
2023-04-27T23:16:33.866Z,28.11
2023-04-27T23:21:29.989Z,28.37
2023-04-27T23:26:29.287Z,27.21
2023-04-27T23:31:28.623Z,27.43
2023-04-27T23:36:28.868Z,28.58
2023-04-27T23:41:27.146Z,28.55
2023-04-27T23:46:27.481Z,28.40
2023-04-27T23:51:25.724Z,28.03
2023-04-27T23:56:24.997Z,28.02
